sensor_id;sensor_type;location;lat;lon;timestamp;pressure;altitude;pressure_sealevel;temperature;humidity
27429;BME280;14881;48.092;11.574;2024-01-27T00:02:19;97039.03;;;-0.53;100.00
27429;BME280;14881;48.092;11.574;2024-01-27T00:04:46;97044.25;;;-0.60;100.00
27429;BME280;14881;48.092;11.574;2024-01-27T00:07:13;97044.63;;;-0.63;100.00
27429;BME280;14881;48.092;11.574;2024-01-27T00:09:39;97048.28;;;-0.64;100.00
27429;BME280;14881;48.092;11.574;2024-01-27T00:12:07;97043.31;;;-0.67;100.00
27429;BME280;14881;48.092;11.574;2024-01-27T00:14:34;97042.13;;;-0.64;100.00
27429;BME280;14881;48.092;11.574;2024-01-27T00:17:03;97039.47;;;-0.64;100.00
27429;BME280;14881;48.092;11.574;2024-01-27T00:19:30;97035.78;;;-0.63;100.00
27429;BME280;14881;48.092;11.574;2024-01-27T00:21:56;97032.75;;;-0.60;100.00
27429;BME280;14881;48.092;11.574;2024-01-27T00:24:26;97039.38;;;-0.56;100.00
27429;BME280;14881;48.092;11.574;2024-01-27T00:26:52;97028.34;;;-0.53;100.00
27429;BME280;14881;48.092;11.574;2024-01-27T00:29:19;97020.13;;;-0.52;100.00
27429;BME280;14881;48.092;11.574;2024-01-27T00:31:46;97014.19;;;-0.54;100.00
27429;BME280;14881;48.092;11.574;2024-01-27T00:34:12;97008.19;;;-0.56;100.00
27429;BME280;14881;48.092;11.574;2024-01-27T00:36:39;97012.06;;;-0.58;100.00
27429;BME280;14881;48.092;11.574;2024-01-27T00:39:05;97018.22;;;-0.58;100.00
27429;BME280;14881;48.092;11.574;2024-01-27T00:41:35;97013.19;;;-0.53;100.00
27429;BME280;14881;48.092;11.574;2024-01-27T00:44:01;97015.28;;;-0.33;100.00
27429;BME280;14881;48.092;11.574;2024-01-27T00:46:28;97023.84;;;-0.09;100.00
27429;BME280;14881;48.092;11.574;2024-01-27T00:48:54;97030.19;;;0.05;100.00
27429;BME280;14881;48.092;11.574;2024-01-27T00:51:22;97029.59;;;0.24;100.00
27429;BME280;14881;48.092;11.574;2024-01-27T00:53:49;97027.78;;;0.25;100.00
27429;BME280;14881;48.092;11.574;2024-01-27T00:56:15;97022.16;;;0.20;100.00
27429;BME280;14881;48.092;11.574;2024-01-27T00:58:42;97023.94;;;0.13;100.00
27429;BME280;14881;48.092;11.574;2024-01-27T01:01:09;97024.44;;;0.23;100.00
27429;BME280;14881;48.092;11.574;2024-01-27T01:03:35;97032.44;;;0.38;100.00
27429;BME280;14881;48.092;11.574;2024-01-27T01:06:02;97031.38;;;0.53;100.00
27429;BME280;14881;48.092;11.574;2024-01-27T01:08:29;97044.47;;;0.63;100.00
27429;BME280;14881;48.092;11.574;2024-01-27T01:10:55;97048.34;;;0.60;100.00
27429;BME280;14881;48.092;11.574;2024-01-27T01:13:22;97048.97;;;0.62;100.00
27429;BME280;14881;48.092;11.574;2024-01-27T01:15:49;97050.44;;;0.65;100.00
27429;BME280;14881;48.092;11.574;2024-01-27T01:18:15;97044.13;;;0.73;100.00
27429;BME280;14881;48.092;11.574;2024-01-27T01:20:42;97048.34;;;0.60;100.00
27429;BME280;14881;48.092;11.574;2024-01-27T01:23:09;97042.28;;;0.52;100.00
27429;BME280;14881;48.092;11.574;2024-01-27T01:25:35;97042.28;;;0.52;100.00
27429;BME280;14881;48.092;11.574;2024-01-27T01:28:01;97059.81;;;0.40;100.00
27429;BME280;14881;48.092;11.574;2024-01-27T01:30:29;97045.75;;;0.31;100.00
27429;BME280;14881;48.092;11.574;2024-01-27T01:32:56;97051.09;;;0.31;100.00
27429;BME280;14881;48.092;11.574;2024-01-27T01:35:23;97055.97;;;0.27;100.00
27429;BME280;14881;48.092;11.574;2024-01-27T01:37:50;97047.94;;;0.27;100.00
27429;BME280;14881;48.092;11.574;2024-01-27T01:40:16;97043.25;;;0.29;100.00
27429;BME280;14881;48.092;11.574;2024-01-27T01:42:42;97062.84;;;0.37;100.00
27429;BME280;14881;48.092;11.574;2024-01-27T01:45:11;97061.75;;;0.46;100.00
27429;BME280;14881;48.092;11.574;2024-01-27T01:47:38;97062.34;;;0.62;100.00
27429;BME280;14881;48.092;11.574;2024-01-27T01:50:07;97059.44;;;0.79;100.00
27429;BME280;14881;48.092;11.574;2024-01-27T01:52:34;97062.63;;;0.89;100.00
27429;BME280;14881;48.092;11.574;2024-01-27T01:55:01;97052.94;;;0.88;100.00
27429;BME280;14881;48.092;11.574;2024-01-27T01:57:27;97060.13;;;0.87;100.00
27429;BME280;14881;48.092;11.574;2024-01-27T01:59:54;97060.34;;;0.86;100.00
27429;BME280;14881;48.092;11.574;2024-01-27T02:02:21;97065.69;;;0.86;100.00
27429;BME280;14881;48.092;11.574;2024-01-27T02:04:47;97064.22;;;0.83;100.00
27429;BME280;14881;48.092;11.574;2024-01-27T02:07:14;97072.81;;;0.79;100.00
27429;BME280;14881;48.092;11.574;2024-01-27T02:09:41;97070.50;;;0.76;100.00
27429;BME280;14881;48.092;11.574;2024-01-27T02:12:11;97082.59;;;0.72;100.00
27429;BME280;14881;48.092;11.574;2024-01-27T02:14:37;97087.13;;;0.71;100.00
27429;BME280;14881;48.092;11.574;2024-01-27T02:17:04;97086.75;;;0.74;100.00
27429;BME280;14881;48.092;11.574;2024-01-27T02:19:31;97084.63;;;0.69;100.00
27429;BME280;14881;48.092;11.574;2024-01-27T02:21:58;97087.50;;;0.68;100.00
27429;BME280;14881;48.092;11.574;2024-01-27T02:24:25;97092.41;;;0.64;100.00
27429;BME280;14881;48.092;11.574;2024-01-27T02:26:53;97093.97;;;0.59;100.00
27429;BME280;14881;48.092;11.574;2024-01-27T02:29:19;97089.81;;;0.56;100.00
27429;BME280;14881;48.092;11.574;2024-01-27T02:31:46;97089.00;;;0.56;100.00
27429;BME280;14881;48.092;11.574;2024-01-27T02:34:12;97092.03;;;0.53;100.00
27429;BME280;14881;48.092;11.574;2024-01-27T02:36:39;97094.94;;;0.51;100.00
27429;BME280;14881;48.092;11.574;2024-01-27T02:39:05;97095.84;;;0.44;100.00
27429;BME280;14881;48.092;11.574;2024-01-27T02:41:32;97098.06;;;0.40;100.00
27429;BME280;14881;48.092;11.574;2024-01-27T02:44:03;97085.81;;;0.31;100.00
27429;BME280;14881;48.092;11.574;2024-01-27T02:46:30;97080.38;;;0.24;100.00
27429;BME280;14881;48.092;11.574;2024-01-27T02:48:56;97095.50;;;0.32;100.00
27429;BME280;14881;48.092;11.574;2024-01-27T02:51:23;97093.00;;;0.30;100.00
27429;BME280;14881;48.092;11.574;2024-01-27T02:53:50;97094.03;;;0.29;100.00
27429;BME280;14881;48.092;11.574;2024-01-27T02:56:16;97090.72;;;0.27;100.00
27429;BME280;14881;48.092;11.574;2024-01-27T02:58:43;97095.41;;;0.25;100.00
27429;BME280;14881;48.092;11.574;2024-01-27T03:01:09;97095.03;;;0.28;100.00
27429;BME280;14881;48.092;11.574;2024-01-27T03:03:36;97094.91;;;0.37;100.00
27429;BME280;14881;48.092;11.574;2024-01-27T03:06:03;97095.03;;;0.43;100.00
27429;BME280;14881;48.092;11.574;2024-01-27T03:08:30;97101.47;;;0.49;100.00
27429;BME280;14881;48.092;11.574;2024-01-27T03:10:56;97094.66;;;0.46;100.00
27429;BME280;14881;48.092;11.574;2024-01-27T03:13:23;97095.50;;;0.32;100.00
27429;BME280;14881;48.092;11.574;2024-01-27T03:15:50;97101.75;;;0.24;100.00
27429;BME280;14881;48.092;11.574;2024-01-27T03:18:18;97104.25;;;0.26;100.00
27429;BME280;14881;48.092;11.574;2024-01-27T03:20:44;97107.09;;;0.24;100.00
27429;BME280;14881;48.092;11.574;2024-01-27T03:23:14;97100.38;;;0.28;100.00
27429;BME280;14881;48.092;11.574;2024-01-27T03:25:40;97113.19;;;0.33;100.00
27429;BME280;14881;48.092;11.574;2024-01-27T03:28:07;97117.31;;;0.35;100.00
27429;BME280;14881;48.092;11.574;2024-01-27T03:30:33;97122.22;;;0.32;100.00
27429;BME280;14881;48.092;11.574;2024-01-27T03:33:00;97123.22;;;0.46;100.00
27429;BME280;14881;48.092;11.574;2024-01-27T03:35:28;97135.22;;;0.50;100.00
27429;BME280;14881;48.092;11.574;2024-01-27T03:37:55;97132.91;;;0.47;100.00
27429;BME280;14881;48.092;11.574;2024-01-27T03:40:21;97136.78;;;0.44;100.00
27429;BME280;14881;48.092;11.574;2024-01-27T03:42:48;97144.91;;;0.51;100.00
27429;BME280;14881;48.092;11.574;2024-01-27T03:45:14;97144.50;;;0.54;100.00
27429;BME280;14881;48.092;11.574;2024-01-27T03:47:40;97147.28;;;0.60;100.00
27429;BME280;14881;48.092;11.574;2024-01-27T03:50:08;97151.22;;;0.64;100.00
27429;BME280;14881;48.092;11.574;2024-01-27T03:52:35;97154.81;;;0.72;100.00
27429;BME280;14881;48.092;11.574;2024-01-27T03:55:01;97168.75;;;0.67;100.00
27429;BME280;14881;48.092;11.574;2024-01-27T03:57:28;97164.31;;;0.74;100.00
27429;BME280;14881;48.092;11.574;2024-01-27T03:59:57;97168.75;;;0.67;100.00
27429;BME280;14881;48.092;11.574;2024-01-27T04:02:23;97160.47;;;0.62;100.00
27429;BME280;14881;48.092;11.574;2024-01-27T04:04:50;97152.50;;;0.54;100.00
27429;BME280;14881;48.092;11.574;2024-01-27T04:07:17;97154.75;;;0.50;100.00
27429;BME280;14881;48.092;11.574;2024-01-27T04:09:43;97157.69;;;0.55;100.00
27429;BME280;14881;48.092;11.574;2024-01-27T04:12:10;97157.03;;;0.53;100.00
27429;BME280;14881;48.092;11.574;2024-01-27T04:14:36;97162.03;;;0.56;100.00
27429;BME280;14881;48.092;11.574;2024-01-27T04:17:03;97164.03;;;0.54;100.00
27429;BME280;14881;48.092;11.574;2024-01-27T04:19:29;97159.53;;;0.55;100.00
27429;BME280;14881;48.092;11.574;2024-01-27T04:21:55;97161.94;;;0.50;100.00
27429;BME280;14881;48.092;11.574;2024-01-27T04:24:22;97163.88;;;0.41;100.00
27429;BME280;14881;48.092;11.574;2024-01-27T04:26:49;97163.41;;;0.38;100.00
27429;BME280;14881;48.092;11.574;2024-01-27T04:29:15;97167.28;;;0.20;100.00
27429;BME280;14881;48.092;11.574;2024-01-27T04:31:42;97164.53;;;0.14;100.00
27429;BME280;14881;48.092;11.574;2024-01-27T04:34:08;97172.78;;;0.04;100.00
27429;BME280;14881;48.092;11.574;2024-01-27T04:36:36;97167.59;;;-0.12;100.00
27429;BME280;14881;48.092;11.574;2024-01-27T04:39:03;97166.56;;;-0.26;100.00
27429;BME280;14881;48.092;11.574;2024-01-27T04:41:31;97169.13;;;-0.32;100.00
27429;BME280;14881;48.092;11.574;2024-01-27T04:43:57;97171.22;;;-0.43;100.00
27429;BME280;14881;48.092;11.574;2024-01-27T04:46:24;97165.03;;;-0.43;100.00
27429;BME280;14881;48.092;11.574;2024-01-27T04:48:51;97170.91;;;-0.48;100.00
27429;BME280;14881;48.092;11.574;2024-01-27T04:51:17;97170.09;;;-0.48;100.00
27429;BME280;14881;48.092;11.574;2024-01-27T04:53:44;97166.75;;;-0.50;100.00
27429;BME280;14881;48.092;11.574;2024-01-27T04:56:10;97174.31;;;-0.54;100.00
27429;BME280;14881;48.092;11.574;2024-01-27T04:58:39;97162.88;;;-0.62;100.00
27429;BME280;14881;48.092;11.574;2024-01-27T05:01:05;97174.88;;;-0.66;100.00
27429;BME280;14881;48.092;11.574;2024-01-27T05:03:32;97177.31;;;-0.80;100.00
27429;BME280;14881;48.092;11.574;2024-01-27T05:05:59;97184.91;;;-0.91;100.00
27429;BME280;14881;48.092;11.574;2024-01-27T05:08:25;97183.84;;;-1.05;100.00
27429;BME280;14881;48.092;11.574;2024-01-27T05:10:52;97191.38;;;-1.17;100.00
27429;BME280;14881;48.092;11.574;2024-01-27T05:13:22;97192.44;;;-1.26;100.00
27429;BME280;14881;48.092;11.574;2024-01-27T05:15:49;97190.44;;;-1.32;100.00
27429;BME280;14881;48.092;11.574;2024-01-27T05:18:16;97194.28;;;-1.34;100.00
27429;BME280;14881;48.092;11.574;2024-01-27T05:20:42;97195.47;;;-1.37;100.00
27429;BME280;14881;48.092;11.574;2024-01-27T05:23:09;97204.00;;;-1.42;100.00
27429;BME280;14881;48.092;11.574;2024-01-27T05:25:35;97213.66;;;-1.41;100.00
27429;BME280;14881;48.092;11.574;2024-01-27T05:28:02;97205.16;;;-1.44;100.00
27429;BME280;14881;48.092;11.574;2024-01-27T05:30:28;97208.09;;;-1.31;100.00
27429;BME280;14881;48.092;11.574;2024-01-27T05:32:55;97214.78;;;-1.35;100.00
27429;BME280;14881;48.092;11.574;2024-01-27T05:35:22;97211.59;;;-1.30;100.00
27429;BME280;14881;48.092;11.574;2024-01-27T05:37:50;97219.25;;;-1.27;100.00
27429;BME280;14881;48.092;11.574;2024-01-27T05:40:17;97224.09;;;-1.31;100.00
27429;BME280;14881;48.092;11.574;2024-01-27T05:42:44;97223.94;;;-1.37;100.00
27429;BME280;14881;48.092;11.574;2024-01-27T05:45:11;97230.16;;;-1.45;100.00
27429;BME280;14881;48.092;11.574;2024-01-27T05:47:38;97224.50;;;-1.50;100.00
27429;BME280;14881;48.092;11.574;2024-01-27T05:50:09;97238.47;;;-1.48;100.00
27429;BME280;14881;48.092;11.574;2024-01-27T05:52:36;97238.66;;;-1.50;100.00
27429;BME280;14881;48.092;11.574;2024-01-27T05:55:02;97240.16;;;-1.55;100.00
27429;BME280;14881;48.092;11.574;2024-01-27T05:57:32;97239.84;;;-1.60;100.00
27429;BME280;14881;48.092;11.574;2024-01-27T05:59:58;97249.84;;;-1.62;100.00
27429;BME280;14881;48.092;11.574;2024-01-27T06:02:25;97247.84;;;-1.60;100.00
27429;BME280;14881;48.092;11.574;2024-01-27T06:04:51;97251.19;;;-1.58;100.00
27429;BME280;14881;48.092;11.574;2024-01-27T06:07:18;97251.84;;;-1.64;100.00
27429;BME280;14881;48.092;11.574;2024-01-27T06:09:45;97260.69;;;-1.64;100.00
27429;BME280;14881;48.092;11.574;2024-01-27T06:12:12;97250.19;;;-1.65;100.00
27429;BME280;14881;48.092;11.574;2024-01-27T06:14:38;97250.19;;;-1.65;100.00
27429;BME280;14881;48.092;11.574;2024-01-27T06:17:05;97254.34;;;-1.63;100.00
27429;BME280;14881;48.092;11.574;2024-01-27T06:19:32;97257.34;;;-1.66;100.00
27429;BME280;14881;48.092;11.574;2024-01-27T06:21:58;97255.84;;;-1.68;100.00
27429;BME280;14881;48.092;11.574;2024-01-27T06:24:27;97260.69;;;-1.72;100.00
27429;BME280;14881;48.092;11.574;2024-01-27T06:26:54;97262.22;;;-1.78;100.00
27429;BME280;14881;48.092;11.574;2024-01-27T06:29:20;97266.88;;;-1.80;100.00
27429;BME280;14881;48.092;11.574;2024-01-27T06:31:48;97269.88;;;-1.83;100.00
27429;BME280;14881;48.092;11.574;2024-01-27T06:34:15;97272.34;;;-1.81;100.00
27429;BME280;14881;48.092;11.574;2024-01-27T06:36:41;97269.88;;;-1.83;100.00
27429;BME280;14881;48.092;11.574;2024-01-27T06:39:08;97270.69;;;-1.82;100.00
27429;BME280;14881;48.092;11.574;2024-01-27T06:41:35;97266.69;;;-1.86;100.00
27429;BME280;14881;48.092;11.574;2024-01-27T06:44:01;97269.69;;;-1.89;100.00
27429;BME280;14881;48.092;11.574;2024-01-27T06:46:29;97282.38;;;-1.91;100.00
27429;BME280;14881;48.092;11.574;2024-01-27T06:48:55;97274.38;;;-1.91;100.00
27429;BME280;14881;48.092;11.574;2024-01-27T06:51:22;97276.69;;;-1.88;100.00
27429;BME280;14881;48.092;11.574;2024-01-27T06:53:48;97278.03;;;-1.84;100.00
27429;BME280;14881;48.092;11.574;2024-01-27T06:56:15;97278.84;;;-1.76;100.00
27429;BME280;14881;48.092;11.574;2024-01-27T06:58:42;97271.19;;;-1.79;100.00
27429;BME280;14881;48.092;11.574;2024-01-27T07:01:08;97284.34;;;-1.77;100.00
27429;BME280;14881;48.092;11.574;2024-01-27T07:03:35;97282.19;;;-1.82;100.00
27429;BME280;14881;48.092;11.574;2024-01-27T07:06:02;97292.66;;;-1.88;100.00
27429;BME280;14881;48.092;11.574;2024-01-27T07:08:28;97274.19;;;-1.82;100.00
27429;BME280;14881;48.092;11.574;2024-01-27T07:10:55;97279.00;;;-1.85;100.00
27429;BME280;14881;48.092;11.574;2024-01-27T07:13:21;97282.19;;;-1.73;100.00
27429;BME280;14881;48.092;11.574;2024-01-27T07:15:48;97279.84;;;-1.77;100.00
27429;BME280;14881;48.092;11.574;2024-01-27T07:18:15;97279.69;;;-1.75;100.00
27429;BME280;14881;48.092;11.574;2024-01-27T07:20:43;97281.34;;;-1.74;100.00
27429;BME280;14881;48.092;11.574;2024-01-27T07:23:09;97280.53;;;-1.74;100.00
27429;BME280;14881;48.092;11.574;2024-01-27T07:25:36;97285.00;;;-1.75;100.00
27429;BME280;14881;48.092;11.574;2024-01-27T07:28:02;97293.34;;;-1.78;100.00
27429;BME280;14881;48.092;11.574;2024-01-27T07:30:29;97298.50;;;-1.77;100.00
27429;BME280;14881;48.092;11.574;2024-01-27T07:32:57;97299.50;;;-1.78;100.00
27429;BME280;14881;48.092;11.574;2024-01-27T07:35:24;97295.00;;;-1.77;100.00
27429;BME280;14881;48.092;11.574;2024-01-27T07:37:50;97295.66;;;-1.83;100.00
27429;BME280;14881;48.092;11.574;2024-01-27T07:40:16;97289.50;;;-1.84;100.00
27429;BME280;14881;48.092;11.574;2024-01-27T07:42:43;97295.50;;;-1.82;100.00
27429;BME280;14881;48.092;11.574;2024-01-27T07:45:09;97295.00;;;-1.77;100.00
27429;BME280;14881;48.092;11.574;2024-01-27T07:47:36;97284.03;;;-1.74;100.00
27429;BME280;14881;48.092;11.574;2024-01-27T07:50:06;97298.31;;;-1.67;100.00
27429;BME280;14881;48.092;11.574;2024-01-27T07:52:33;97292.47;;;-1.62;100.00
27429;BME280;14881;48.092;11.574;2024-01-27T07:54:59;97296.97;;;-1.63;100.00
27429;BME280;14881;48.092;11.574;2024-01-27T07:57:26;97293.97;;;-1.60;100.00
27429;BME280;14881;48.092;11.574;2024-01-27T07:59:52;97290.63;;;-1.54;100.00
27429;BME280;14881;48.092;11.574;2024-01-27T08:02:19;97298.13;;;-1.49;100.00
27429;BME280;14881;48.092;11.574;2024-01-27T08:04:45;97303.59;;;-1.43;100.00
27429;BME280;14881;48.092;11.574;2024-01-27T08:07:14;97304.41;;;-1.34;100.00
27429;BME280;14881;48.092;11.574;2024-01-27T08:09:42;97299.56;;;-1.30;100.00
27429;BME280;14881;48.092;11.574;2024-01-27T08:12:08;97304.06;;;-1.23;100.00
27429;BME280;14881;48.092;11.574;2024-01-27T08:14:35;97302.69;;;-1.19;100.00
27429;BME280;14881;48.092;11.574;2024-01-27T08:17:01;97303.69;;;-1.12;100.00
27429;BME280;14881;48.092;11.574;2024-01-27T08:19:29;97295.00;;;-1.06;100.00
27429;BME280;14881;48.092;11.574;2024-01-27T08:21:55;97296.94;;;-0.91;100.00
27429;BME280;14881;48.092;11.574;2024-01-27T08:24:23;97307.56;;;-0.83;100.00
27429;BME280;14881;48.092;11.574;2024-01-27T08:26:50;97311.22;;;-0.76;100.00
27429;BME280;14881;48.092;11.574;2024-01-27T08:29:16;97314.31;;;-0.64;100.00
27429;BME280;14881;48.092;11.574;2024-01-27T08:31:42;97309.59;;;-0.54;100.00
27429;BME280;14881;48.092;11.574;2024-01-27T08:34:09;97309.03;;;-0.42;100.00
27429;BME280;14881;48.092;11.574;2024-01-27T08:36:38;97313.25;;;-0.24;100.00
27429;BME280;14881;48.092;11.574;2024-01-27T08:39:04;97321.81;;;-0.06;100.00
27429;BME280;14881;48.092;11.574;2024-01-27T08:41:34;97313.84;;;0.09;100.00
27429;BME280;14881;48.092;11.574;2024-01-27T08:44:00;97315.19;;;0.27;100.00
27429;BME280;14881;48.092;11.574;2024-01-27T08:46:27;97322.19;;;0.51;100.00
27429;BME280;14881;48.092;11.574;2024-01-27T08:48:53;97316.56;;;0.76;100.00
27429;BME280;14881;48.092;11.574;2024-01-27T08:51:20;97312.91;;;0.91;100.00
27429;BME280;14881;48.092;11.574;2024-01-27T08:53:46;97313.19;;;1.11;100.00
27429;BME280;14881;48.092;11.574;2024-01-27T08:56:14;97314.09;;;1.33;100.00
27429;BME280;14881;48.092;11.574;2024-01-27T08:58:42;97326.72;;;1.54;100.00
27429;BME280;14881;48.092;11.574;2024-01-27T09:01:08;97322.59;;;1.72;100.00
27429;BME280;14881;48.092;11.574;2024-01-27T09:03:35;97317.00;;;1.89;100.00
27429;BME280;14881;48.092;11.574;2024-01-27T09:06:02;97320.00;;;2.00;100.00
27429;BME280;14881;48.092;11.574;2024-01-27T09:08:29;97320.59;;;2.17;100.00
27429;BME280;14881;48.092;11.574;2024-01-27T09:10:55;97316.09;;;2.45;100.00
27429;BME280;14881;48.092;11.574;2024-01-27T09:13:22;97309.03;;;2.66;100.00
27429;BME280;14881;48.092;11.574;2024-01-27T09:15:49;97310.69;;;2.67;100.00
27429;BME280;14881;48.092;11.574;2024-01-27T09:18:15;97310.31;;;2.70;100.00
27429;BME280;14881;48.092;11.574;2024-01-27T09:20:42;97314.41;;;2.66;100.00
27429;BME280;14881;48.092;11.574;2024-01-27T09:23:09;97312.00;;;2.77;100.00
27429;BME280;14881;48.092;11.574;2024-01-27T09:25:35;97302.41;;;2.90;100.00
27429;BME280;14881;48.092;11.574;2024-01-27T09:28:02;97298.91;;;2.96;100.00
27429;BME280;14881;48.092;11.574;2024-01-27T09:30:29;97295.09;;;3.11;100.00
27429;BME280;14881;48.092;11.574;2024-01-27T09:32:59;97294.47;;;3.16;100.00
27429;BME280;14881;48.092;11.574;2024-01-27T09:35:26;97287.13;;;3.31;100.00
27429;BME280;14881;48.092;11.574;2024-01-27T09:37:53;97281.41;;;3.47;100.00
27429;BME280;14881;48.092;11.574;2024-01-27T09:40:19;97290.38;;;3.68;100.00
27429;BME280;14881;48.092;11.574;2024-01-27T09:42:50;97288.31;;;3.70;100.00
27429;BME280;14881;48.092;11.574;2024-01-27T09:45:18;97284.19;;;3.74;100.00
27429;BME280;14881;48.092;11.574;2024-01-27T09:47:46;97303.25;;;3.79;100.00
27429;BME280;14881;48.092;11.574;2024-01-27T09:50:17;97302.28;;;4.13;100.00
27429;BME280;14881;48.092;11.574;2024-01-27T09:52:44;97303.34;;;4.38;100.00
27429;BME280;14881;48.092;11.574;2024-01-27T09:55:10;97294.66;;;4.63;100.00
27429;BME280;14881;48.092;11.574;2024-01-27T09:57:38;97296.69;;;5.00;100.00
27429;BME280;14881;48.092;11.574;2024-01-27T10:00:10;97294.00;;;4.94;100.00
27429;BME280;14881;48.092;11.574;2024-01-27T10:02:39;97296.16;;;5.43;100.00
27429;BME280;14881;48.092;11.574;2024-01-27T10:05:07;97290.88;;;5.68;100.00
27429;BME280;14881;48.092;11.574;2024-01-27T10:07:35;97295.78;;;5.90;100.00
27429;BME280;14881;48.092;11.574;2024-01-27T10:10:01;97304.53;;;5.73;100.00
27429;BME280;14881;48.092;11.574;2024-01-27T10:12:28;97305.06;;;6.33;100.00
27429;BME280;14881;48.092;11.574;2024-01-27T10:14:55;97303.47;;;6.56;100.00
27429;BME280;14881;48.092;11.574;2024-01-27T10:17:22;97299.38;;;6.72;100.00
27429;BME280;14881;48.092;11.574;2024-01-27T10:19:59;97297.75;;;7.32;100.00
27429;BME280;14881;48.092;11.574;2024-01-27T10:22:26;97286.69;;;7.71;100.00
27429;BME280;14881;48.092;11.574;2024-01-27T10:24:53;97280.25;;;8.01;100.00
27429;BME280;14881;48.092;11.574;2024-01-27T10:27:21;97282.38;;;7.99;100.00
27429;BME280;14881;48.092;11.574;2024-01-27T10:29:52;97268.81;;;7.99;100.00
27429;BME280;14881;48.092;11.574;2024-01-27T10:32:20;97273.81;;;7.84;100.00
27429;BME280;14881;48.092;11.574;2024-01-27T10:34:49;97274.53;;;8.10;100.00
27429;BME280;14881;48.092;11.574;2024-01-27T10:37:24;97262.81;;;8.27;100.00
27429;BME280;14881;48.092;11.574;2024-01-27T10:40:00;97260.66;;;8.18;100.00
27429;BME280;14881;48.092;11.574;2024-01-27T10:42:29;97268.19;;;8.46;100.00
27429;BME280;14881;48.092;11.574;2024-01-27T10:44:58;97261.28;;;9.20;100.00
27429;BME280;14881;48.092;11.574;2024-01-27T10:47:27;97253.47;;;8.53;100.00
27429;BME280;14881;48.092;11.574;2024-01-27T10:49:55;97255.00;;;8.08;100.00
27429;BME280;14881;48.092;11.574;2024-01-27T10:52:24;97251.72;;;8.70;100.00
27429;BME280;14881;48.092;11.574;2024-01-27T10:54:58;97262.28;;;8.07;100.00
27429;BME280;14881;48.092;11.574;2024-01-27T10:57:27;97257.69;;;7.78;100.00
27429;BME280;14881;48.092;11.574;2024-01-27T10:59:56;97254.16;;;8.37;100.00
27429;BME280;14881;48.092;11.574;2024-01-27T11:02:23;97245.00;;;8.85;100.00
27429;BME280;14881;48.092;11.574;2024-01-27T11:04:51;97246.91;;;8.96;100.00
27429;BME280;14881;48.092;11.574;2024-01-27T11:07:19;97241.69;;;9.29;100.00
27429;BME280;14881;48.092;11.574;2024-01-27T11:09:48;97238.31;;;8.99;100.00
27429;BME280;14881;48.092;11.574;2024-01-27T11:12:16;97235.22;;;8.07;100.00
27429;BME280;14881;48.092;11.574;2024-01-27T11:14:44;97235.69;;;8.57;100.00
27429;BME280;14881;48.092;11.574;2024-01-27T11:17:11;97238.78;;;8.84;100.00
27429;BME280;14881;48.092;11.574;2024-01-27T11:19:39;97236.19;;;8.78;100.00
27429;BME280;14881;48.092;11.574;2024-01-27T11:22:06;97223.34;;;8.73;100.00
27429;BME280;14881;48.092;11.574;2024-01-27T11:24:34;97228.34;;;7.93;100.00
27429;BME280;14881;48.092;11.574;2024-01-27T11:27:02;97215.69;;;8.47;100.00
27429;BME280;14881;48.092;11.574;2024-01-27T11:29:29;97218.94;;;8.49;100.00
27429;BME280;14881;48.092;11.574;2024-01-27T11:32:00;97221.00;;;8.77;100.00
27429;BME280;14881;48.092;11.574;2024-01-27T11:34:27;97218.84;;;8.67;100.00
27429;BME280;14881;48.092;11.574;2024-01-27T11:36:54;97216.63;;;8.64;100.00
27429;BME280;14881;48.092;11.574;2024-01-27T11:39:24;97214.84;;;8.46;100.00
27429;BME280;14881;48.092;11.574;2024-01-27T11:41:51;97213.03;;;8.28;100.00
27429;BME280;14881;48.092;11.574;2024-01-27T11:44:18;97209.31;;;8.41;100.00
27429;BME280;14881;48.092;11.574;2024-01-27T11:46:45;97210.94;;;9.12;100.00
27429;BME280;14881;48.092;11.574;2024-01-27T11:49:15;97214.03;;;9.16;100.00
27429;BME280;14881;48.092;11.574;2024-01-27T11:51:42;97212.81;;;9.35;100.00
27429;BME280;14881;48.092;11.574;2024-01-27T11:54:08;97216.97;;;9.54;100.00
27429;BME280;14881;48.092;11.574;2024-01-27T11:56:35;97216.53;;;9.46;100.00
27429;BME280;14881;48.092;11.574;2024-01-27T11:59:01;97214.72;;;9.63;100.00
27429;BME280;14881;48.092;11.574;2024-01-27T12:01:28;97215.25;;;9.48;100.00
27429;BME280;14881;48.092;11.574;2024-01-27T12:03:54;97207.38;;;9.35;100.00
27429;BME280;14881;48.092;11.574;2024-01-27T12:06:22;97203.53;;;9.07;100.00
27429;BME280;14881;48.092;11.574;2024-01-27T12:08:49;97210.16;;;9.00;100.00
27429;BME280;14881;48.092;11.574;2024-01-27T12:11:16;97211.91;;;8.94;100.00
27429;BME280;14881;48.092;11.574;2024-01-27T12:13:50;97206.72;;;8.93;100.00
27429;BME280;14881;48.092;11.574;2024-01-27T12:16:16;97205.97;;;9.32;100.00
27429;BME280;14881;48.092;11.574;2024-01-27T12:18:43;97204.75;;;9.80;100.00
27429;BME280;14881;48.092;11.574;2024-01-27T12:21:10;97204.75;;;9.80;100.00
27429;BME280;14881;48.092;11.574;2024-01-27T12:23:49;97202.16;;;9.73;100.00
27429;BME280;14881;48.092;11.574;2024-01-27T12:26:15;97203.28;;;9.89;100.00
27429;BME280;14881;48.092;11.574;2024-01-27T12:28:45;97204.66;;;9.23;100.00
27429;BME280;14881;48.092;11.574;2024-01-27T12:31:14;97201.03;;;9.58;100.00
27429;BME280;14881;48.092;11.574;2024-01-27T12:33:48;97195.16;;;9.61;100.00
27429;BME280;14881;48.092;11.574;2024-01-27T12:36:14;97201.94;;;9.75;100.00
27429;BME280;14881;48.092;11.574;2024-01-27T12:38:41;97193.44;;;9.71;100.00
27429;BME280;14881;48.092;11.574;2024-01-27T12:41:08;97185.81;;;9.57;100.00
27429;BME280;14881;48.092;11.574;2024-01-27T12:43:34;97185.44;;;9.93;100.00
27429;BME280;14881;48.092;11.574;2024-01-27T12:46:01;97184.88;;;9.63;100.00